Time;durP1;ratioP1;P1;durP2;ratioP2;P2;SDS_P1;SDS_P2;PMS_P1;PMS_P2;Temp;Humidity;BMP_temperature;BMP_pressure;BME280_temperature;BME280_humidity;BME280_pressure;Samples;Min_cycle;Max_cycle;Signal;HPM_P1;HPM_P2
2023/04/14 00:02:13;;;;;;;3.7;1;;;;;;;;;;;;;-71
2023/04/14 00:03:30;;;;;;;;;;;;;;;5.35;74.38379;100903;;;;-72
2023/04/14 00:08:27;;;;;;;;;;;;;;;5.33;74.6875;100901.5;;;;-74
2023/04/14 00:13:30;;;;;;;;;;;;;;;5.28;74.82227;100902;;;;-72
2023/04/14 00:18:27;;;;;;;;;;;;;;;5.28;74.51563;100902.5;;;;-72
2023/04/14 00:23:27;;;;;;;;;;;;;;;5.22;74.50391;100904.3;;;;-72
2023/04/14 00:28:30;;;;;;;;;;;;;;;5.17;74.71484;100901.4;;;;-72
2023/04/14 00:32:15;;;;;;;3.6;1.3;;;;;;;;;;;;;-70
2023/04/14 00:33:28;;;;;;;;;;;;;;;5.15;75.18164;100898.8;;;;-74
2023/04/14 00:38:30;;;;;;;;;;;;;;;5.11;75.4502;100897.2;;;;-72
2023/04/14 00:43:27;;;;;;;;;;;;;;;5.12;75.32031;100895.2;;;;-71
2023/04/14 00:48:30;;;;;;;;;;;;;;;5.14;75.5625;100898;;;;-72
2023/04/14 00:53:27;;;;;;;;;;;;;;;5.1;75.69824;100896.7;;;;-72
2023/04/14 00:58:28;;;;;;;;;;;;;;;5.1;75.55664;100896.1;;;;-72
2023/04/14 01:02:15;;;;;;;6;1.3;;;;;;;;;;;;;-73
2023/04/14 01:03:28;;;;;;;;;;;;;;;5.09;75.49805;100895.7;;;;-71
2023/04/14 01:08:27;;;;;;;;;;;;;;;5.05;75.7002;100895.8;;;;-74
2023/04/14 01:13:33;;;;;;;;;;;;;;;5;75.25391;100902.9;;;;-72
2023/04/14 01:18:32;;;;;;;;;;;;;;;4.99;74.94629;100907.6;;;;-72
2023/04/14 01:23:30;;;;;;;;;;;;;;;4.96;75.60742;100917.5;;;;-71
2023/04/14 01:28:37;;;;;;;;;;;;;;;4.88;75.77832;100913.3;;;;-72
2023/04/14 01:32:20;;;;;;;4.1;1.1;;;;;;;;;;;;;-72
2023/04/14 01:33:32;;;;;;;;;;;;;;;4.91;75.74121;100917.9;;;;-72
2023/04/14 01:38:30;;;;;;;;;;;;;;;4.86;75.89551;100920.3;;;;-72
2023/04/14 01:43:28;;;;;;;;;;;;;;;4.81;76.12891;100920.4;;;;-72
2023/04/14 01:48:29;;;;;;;;;;;;;;;4.84;75.54492;100927.8;;;;-72
2023/04/14 01:53:32;;;;;;;;;;;;;;;4.77;75.73828;100933.9;;;;-71
2023/04/14 01:58:28;;;;;;;;;;;;;;;4.79;75.52539;100938.7;;;;-71
2023/04/14 02:02:18;;;;;;;5.1;1.2;;;;;;;;;;;;;-72
2023/04/14 02:03:34;;;;;;;;;;;;;;;4.77;75.45508;100936;;;;-71
2023/04/14 02:08:28;;;;;;;;;;;;;;;4.73;75.90625;100939.5;;;;-72
2023/04/14 02:13:28;;;;;;;;;;;;;;;4.68;75.89844;100936.7;;;;-71
2023/04/14 02:18:28;;;;;;;;;;;;;;;4.63;75.61523;100938.3;;;;-72
2023/04/14 02:23:27;;;;;;;;;;;;;;;4.57;75.71484;100947;;;;-72
2023/04/14 02:28:31;;;;;;;;;;;;;;;4.55;75.75586;100950;;;;-72
2023/04/14 02:32:20;;;;;;;3.9;1.3;;;;;;;;;;;;;-73
2023/04/14 02:33:31;;;;;;;;;;;;;;;4.48;76.08203;100950.9;;;;-73
2023/04/14 02:38:32;;;;;;;;;;;;;;;4.5;75.75684;100950.5;;;;-71
2023/04/14 02:43:29;;;;;;;;;;;;;;;4.44;76.56445;100944.4;;;;-71
2023/04/14 02:48:32;;;;;;;;;;;;;;;4.43;76.35547;100955;;;;-72
2023/04/14 02:53:28;;;;;;;;;;;;;;;4.4;76.16504;100958.5;;;;-72
2023/04/14 02:58:28;;;;;;;;;;;;;;;4.42;75.88477;100965.1;;;;-72
2023/04/14 03:02:18;;;;;;;4.1;1.2;;;;;;;;;;;;;-72
2023/04/14 03:03:28;;;;;;;;;;;;;;;4.34;76.47266;100961.4;;;;-72
2023/04/14 03:08:28;;;;;;;;;;;;;;;4.31;76.01953;100964.9;;;;-72
2023/04/14 03:13:28;;;;;;;;;;;;;;;4.27;76.72168;100966.6;;;;-72
2023/04/14 03:18:28;;;;;;;;;;;;;;;4.27;76.44824;100967;;;;-72
2023/04/14 03:23:28;;;;;;;;;;;;;;;4.22;76.59375;100969.1;;;;-73
2023/04/14 03:28:29;;;;;;;;;;;;;;;4.23;76.14551;100977.7;;;;-72
2023/04/14 03:32:20;;;;;;;3.5;1.3;;;;;;;;;;;;;-71
2023/04/14 03:33:29;;;;;;;;;;;;;;;4.16;76.37305;100977.3;;;;-72
2023/04/14 03:38:28;;;;;;;;;;;;;;;4.14;76.09668;100983.8;;;;-72
2023/04/14 03:43:28;;;;;;;;;;;;;;;4.12;76.58594;100982.6;;;;-72
2023/04/14 03:48:29;;;;;;;;;;;;;;;4.13;76.47754;100982.8;;;;-71
2023/04/14 03:53:27;;;;;;;;;;;;;;;4.08;76.49121;100983.5;;;;-72
2023/04/14 03:58:28;;;;;;;;;;;;;;;4.04;76.67871;100985.5;;;;-71
2023/04/14 04:02:19;;;;;;;5.4;1.8;;;;;;;;;;;;;-70
2023/04/14 04:03:27;;;;;;;;;;;;;;;3.98;76.5166;100988.4;;;;-72
2023/04/14 04:08:27;;;;;;;;;;;;;;;3.98;76.76758;100992.1;;;;-72
2023/04/14 04:13:27;;;;;;;;;;;;;;;3.88;76.54297;100994.6;;;;-72
2023/04/14 04:18:29;;;;;;;;;;;;;;;3.94;76.36816;100996.7;;;;-71
2023/04/14 04:23:28;;;;;;;;;;;;;;;3.9;76.8418;100995.3;;;;-71
2023/04/14 04:28:27;;;;;;;;;;;;;;;3.85;77.24609;101000.1;;;;-71
2023/04/14 04:32:20;;;;;;;4.7;1.6;;;;;;;;;;;;;-72
2023/04/14 04:33:29;;;;;;;;;;;;;;;3.83;77.08887;101002.1;;;;-71
2023/04/14 04:38:27;;;;;;;;;;;;;;;3.78;77.12402;101006.8;;;;-73
2023/04/14 04:43:27;;;;;;;;;;;;;;;3.81;77.42383;101009.7;;;;-73
2023/04/14 04:48:27;;;;;;;;;;;;;;;3.76;77.73145;101012.5;;;;-72
2023/04/14 04:53:27;;;;;;;;;;;;;;;3.78;77.07031;101014.3;;;;-72
2023/04/14 04:58:27;;;;;;;;;;;;;;;3.78;77.85449;101010.5;;;;-72
2023/04/14 05:02:20;;;;;;;5.3;2.1;;;;;;;;;;;;;-72
2023/04/14 05:03:27;;;;;;;;;;;;;;;3.8;77.99023;101019.5;;;;-72
2023/04/14 05:08:27;;;;;;;;;;;;;;;3.83;78.14648;101019.1;;;;-72
2023/04/14 05:13:27;;;;;;;;;;;;;;;3.86;78.30371;101018.6;;;;-72
2023/04/14 05:18:27;;;;;;;;;;;;;;;3.88;77.93848;101021.5;;;;-73
2023/04/14 05:23:27;;;;;;;;;;;;;;;3.89;78.58301;101016.6;;;;-72
2023/04/14 05:28:27;;;;;;;;;;;;;;;3.94;78.67871;101018.4;;;;-71
2023/04/14 05:32:21;;;;;;;6.2;2.7;;;;;;;;;;;;;-72
2023/04/14 05:33:27;;;;;;;;;;;;;;;3.97;77.97852;101025.3;;;;-72
2023/04/14 05:38:27;;;;;;;;;;;;;;;4;78.58105;101029;;;;-73
2023/04/14 05:43:27;;;;;;;;;;;;;;;4.05;78.5127;101029.8;;;;-73
2023/04/14 05:48:29;;;;;;;;;;;;;;;4.08;78.8252;101031.8;;;;-72
2023/04/14 05:53:27;;;;;;;;;;;;;;;4.16;79.25488;101031.5;;;;-72
2023/04/14 05:58:28;;;;;;;;;;;;;;;4.48;78.85449;101035.7;;;;-72
2023/04/14 06:02:20;;;;;;;10.5;3.7;;;;;;;;;;;;;-72
2023/04/14 06:03:29;;;;;;;;;;;;;;;4.96;78.06836;101034;;;;-71
2023/04/14 06:08:29;;;;;;;;;;;;;;;5.36;77.79102;101035.3;;;;-72
2023/04/14 06:13:27;;;;;;;;;;;;;;;5.65;76.86719;101030.3;;;;-72
2023/04/14 06:18:27;;;;;;;;;;;;;;;5.91;75.89551;101030;;;;-73
2023/04/14 06:23:27;;;;;;;;;;;;;;;6.27;75.50781;101029.3;;;;-72
2023/04/14 06:28:27;;;;;;;;;;;;;;;6.57;74.82422;101030.5;;;;-74
2023/04/14 06:32:21;;;;;;;10.2;3.8;;;;;;;;;;;;;-72
2023/04/14 06:33:27;;;;;;;;;;;;;;;6.8;74.62402;101030.5;;;;-72
2023/04/14 06:38:27;;;;;;;;;;;;;;;7.07;73.91016;101018.7;;;;-73
2023/04/14 06:43:27;;;;;;;;;;;;;;;7.48;74.70703;101028.5;;;;-72
2023/04/14 06:48:27;;;;;;;;;;;;;;;7.51;74.22852;101026.7;;;;-72
2023/04/14 06:53:27;;;;;;;;;;;;;;;7.78;73.87695;101017.1;;;;-71
2023/04/14 06:58:27;;;;;;;;;;;;;;;8.06;73.9375;101016.5;;;;-72
2023/04/14 07:02:22;;;;;;;8.9;3.7;;;;;;;;;;;;;-72
2023/04/14 07:03:27;;;;;;;;;;;;;;;8.31;73.75879;101020.9;;;;-72
2023/04/14 07:08:30;;;;;;;;;;;;;;;8.49;73.11523;101015.5;;;;-73
2023/04/14 07:13:27;;;;;;;;;;;;;;;8.59;74.10352;101010;;;;-72
2023/04/14 07:18:27;;;;;;;;;;;;;;;8.95;73.37012;101008.7;;;;-73
2023/04/14 07:23:27;;;;;;;;;;;;;;;9.21;73.43652;101009;;;;-72
2023/04/14 07:28:28;;;;;;;;;;;;;;;9.39;72.4375;101007.7;;;;-71
2023/04/14 07:32:22;;;;;;;10.5;3.8;;;;;;;;;;;;;-72
2023/04/14 07:33:29;;;;;;;;;;;;;;;9.82;71.23535;101005.2;;;;-72
2023/04/14 07:38:27;;;;;;;;;;;;;;;10.04;70.75195;100998.5;;;;-73
2023/04/14 07:43:28;;;;;;;;;;;;;;;10.45;69.85254;100991.5;;;;-74
2023/04/14 07:48:29;;;;;;;;;;;;;;;10.77;69.14844;100989.9;;;;-72
2023/04/14 07:53:27;;;;;;;;;;;;;;;11.05;69.51563;100983.1;;;;-73
2023/04/14 07:58:27;;;;;;;;;;;;;;;11.6;67.59863;100987;;;;-72
2023/04/14 08:02:24;;;;;;;11.7;4.3;;;;;;;;;;;;;-71
2023/04/14 08:03:27;;;;;;;;;;;;;;;11.85;66.99219;100993.8;;;;-72
2023/04/14 08:08:27;;;;;;;;;;;;;;;12.33;65.14551;100987.2;;;;-72
2023/04/14 08:13:29;;;;;;;;;;;;;;;12.6;65.26367;100991;;;;-69
2023/04/14 08:18:27;;;;;;;;;;;;;;;12.88;65.08105;100986.7;;;;-73
2023/04/14 08:23:29;;;;;;;;;;;;;;;13.09;64.83398;100986.6;;;;-71
2023/04/14 08:28:27;;;;;;;;;;;;;;;13.32;64.4873;100993.2;;;;-72
2023/04/14 08:32:26;;;;;;;13.6;3.9;;;;;;;;;;;;;-72
2023/04/14 08:33:27;;;;;;;;;;;;;;;13.76;62.59277;100997;;;;-74
2023/04/14 08:38:28;;;;;;;;;;;;;;;14.05;62.64355;100990.1;;;;-73
2023/04/14 08:43:27;;;;;;;;;;;;;;;14.27;62.62988;100993.6;;;;-73
2023/04/14 08:48:30;;;;;;;;;;;;;;;14.51;62.08301;100995.8;;;;-73
2023/04/14 08:53:31;;;;;;;;;;;;;;;14.75;62.2832;100994.8;;;;-72
2023/04/14 08:58:27;;;;;;;;;;;;;;;14.99;61.58691;100992.9;;;;-71
2023/04/14 09:02:28;;;;;;;7.5;2.2;;;;;;;;;;;;;-71
2023/04/14 09:03:29;;;;;;;;;;;;;;;15.22;60.7627;100989;;;;-73
2023/04/14 09:08:32;;;;;;;;;;;;;;;15.5;60.46582;100980;;;;-73
2023/04/14 09:13:29;;;;;;;;;;;;;;;15.84;59.91406;100977.1;;;;-73
2023/04/14 09:18:30;;;;;;;;;;;;;;;16.09;59.10254;100978.6;;;;-74
2023/04/14 09:23:31;;;;;;;;;;;;;;;16.25;58.42578;100977;;;;-72
2023/04/14 09:28:27;;;;;;;;;;;;;;;16.42;58.0625;100975.3;;;;-73
2023/04/14 09:32:32;;;;;;;4;1.5;;;;;;;;;;;;;-71
2023/04/14 09:33:27;;;;;;;;;;;;;;;16.66;57.39453;100974;;;;-72
2023/04/14 09:38:39;;;;;;;;;;;;;;;16.86;57.23926;100968.4;;;;-72
2023/04/14 09:43:30;;;;;;;;;;;;;;;17.2;56.11914;100969.2;;;;-72
2023/04/14 09:48:27;;;;;;;;;;;;;;;17.28;55.73242;100964.9;;;;-73
2023/04/14 09:53:32;;;;;;;;;;;;;;;17.61;55.6377;100959.4;;;;-72
2023/04/14 09:58:32;;;;;;;;;;;;;;;17.82;55.75391;100961.4;;;;-72
2023/04/14 10:02:31;;;;;;;5.1;1.2;;;;;;;;;;;;;-71
2023/04/14 10:03:39;;;;;;;;;;;;;;;17.84;54.41895;100960.5;;;;-72
2023/04/14 10:08:36;;;;;;;;;;;;;;;18.01;54.45117;100960.8;;;;-72
2023/04/14 10:13:30;;;;;;;;;;;;;;;18.21;54.1582;100958.6;;;;-70
2023/04/14 10:18:27;;;;;;;;;;;;;;;18.16;55.59277;100958.8;;;;-73
2023/04/14 10:23:30;;;;;;;;;;;;;;;18.21;56.00781;100960.6;;;;-72
2023/04/14 10:28:29;;;;;;;;;;;;;;;18.38;53.43066;100948.6;;;;-72
2023/04/14 10:32:37;;;;;;;4.1;0.8;;;;;;;;;;;;;-72
2023/04/14 10:33:28;;;;;;;;;;;;;;;18.39;53.96582;100946.3;;;;-73
2023/04/14 10:38:38;;;;;;;;;;;;;;;18.6;53.60449;100942.7;;;;-73
2023/04/14 10:43:31;;;;;;;;;;;;;;;18.83;56.80176;100932.9;;;;-72
2023/04/14 10:48:27;;;;;;;;;;;;;;;18.94;52.82715;100932;;;;-73
2023/04/14 10:53:27;;;;;;;;;;;;;;;19.17;56.52734;100932;;;;-73
2023/04/14 10:58:31;;;;;;;;;;;;;;;19.13;57.70313;100929.9;;;;-72
2023/04/14 11:02:37;;;;;;;3.7;0.9;;;;;;;;;;;;;-73
2023/04/14 11:03:27;;;;;;;;;;;;;;;19.06;56.11426;100920.9;;;;-73
2023/04/14 11:08:29;;;;;;;;;;;;;;;19.29;57.84961;100916.2;;;;-72
2023/04/14 11:13:27;;;;;;;;;;;;;;;19.54;57.25684;100912.1;;;;-72
2023/04/14 11:18:35;;;;;;;;;;;;;;;19.73;58.66992;100914.5;;;;-73
2023/04/14 11:23:33;;;;;;;;;;;;;;;19.93;60.46875;100920.6;;;;-71
2023/04/14 11:28:33;;;;;;;;;;;;;;;19.81;59.12305;100907.9;;;;-74
2023/04/14 11:32:52;;;;;;;3.4;1.1;;;;;;;;;;;;;-72
2023/04/14 11:33:30;;;;;;;;;;;;;;;19.44;57.2207;100913.3;;;;-72
2023/04/14 11:38:27;;;;;;;;;;;;;;;19.12;58.32813;100913.3;;;;-71
2023/04/14 11:43:30;;;;;;;;;;;;;;;19.23;56.31836;100915.2;;;;-72
2023/04/14 11:48:27;;;;;;;;;;;;;;;19.62;59.51758;100912.8;;;;-73
2023/04/14 11:53:27;;;;;;;;;;;;;;;19.79;59.47266;100913.5;;;;-72
2023/04/14 11:58:33;;;;;;;;;;;;;;;19.66;61.85254;100913;;;;-73
2023/04/14 12:02:45;;;;;;;4.1;1;;;;;;;;;;;;;-72
2023/04/14 12:03:28;;;;;;;;;;;;;;;19.55;56.88184;100909.8;;;;-73
2023/04/14 12:08:27;;;;;;;;;;;;;;;19.65;61.74902;100914;;;;-73
2023/04/14 12:18:30;;;;;;;;;;;;;;;20.19;59.78809;100909.8;;;;-71
2023/04/14 12:23:27;;;;;;;;;;;;;;;20.28;61.15332;100905.2;;;;-72
2023/04/14 12:28:35;;;;;;;;;;;;;;;20.53;61.97461;100905.5;;;;-74
2023/04/14 12:32:48;;;;;;;3.7;0.9;;;;;;;;;;;;;-73
2023/04/14 12:33:33;;;;;;;;;;;;;;;20.61;58.29297;100904.2;;;;-72
2023/04/14 12:38:28;;;;;;;;;;;;;;;20.67;56.5127;100904;;;;-72
2023/04/14 12:43:35;;;;;;;;;;;;;;;20.63;57.17969;100900.5;;;;-74
2023/04/14 12:48:37;;;;;;;;;;;;;;;20.9;58.60547;100893.3;;;;-72
2023/04/14 12:53:31;;;;;;;;;;;;;;;20.96;56.17188;100901.4;;;;-73
2023/04/14 12:58:32;;;;;;;;;;;;;;;20.5;58.40527;100890.7;;;;-73
2023/04/14 13:02:49;;;;;;;3;0.8;;;;;;;;;;;;;-72
2023/04/14 13:03:37;;;;;;;;;;;;;;;20.15;60.03223;100892.2;;;;-72
2023/04/14 13:08:27;;;;;;;;;;;;;;;20.4;60.21387;100886.7;;;;-72
2023/04/14 13:13:29;;;;;;;;;;;;;;;20.6;57.1084;100875.3;;;;-72
2023/04/14 13:18:28;;;;;;;;;;;;;;;20.53;58.04297;100878.4;;;;-73
2023/04/14 13:23:28;;;;;;;;;;;;;;;20.52;59.41016;100878.7;;;;-73
2023/04/14 13:28:27;;;;;;;;;;;;;;;20.57;58.57422;100867.3;;;;-73
2023/04/14 13:32:56;;;;;;;2.9;0.9;;;;;;;;;;;;;-72
2023/04/14 13:33:27;;;;;;;;;;;;;;;20.63;61.54297;100862.5;;;;-72
2023/04/14 13:38:27;;;;;;;;;;;;;;;20.87;61.09863;100863.6;;;;-73
2023/04/14 13:43:28;;;;;;;;;;;;;;;20.9;60.7832;100856.8;;;;-72
2023/04/14 13:48:27;;;;;;;;;;;;;;;20.88;58.99121;100852.3;;;;-73
2023/04/14 13:53:28;;;;;;;;;;;;;;;20.89;57.88672;100847.3;;;;-73
2023/04/14 13:58:30;;;;;;;;;;;;;;;20.64;61.6582;100842.4;;;;-73
2023/04/14 14:02:59;;;;;;;4.3;1.2;;;;;;;;;;;;;-72
2023/04/14 14:03:28;;;;;;;;;;;;;;;20.32;59.77051;100846.8;;;;-71
2023/04/14 14:08:30;;;;;;;;;;;;;;;20.02;60.08398;100842.9;;;;-73
2023/04/14 14:13:27;;;;;;;;;;;;;;;19.8;62.44043;100840.7;;;;-73
2023/04/14 14:18:30;;;;;;;;;;;;;;;19.89;61.54297;100840;;;;-73
2023/04/14 14:23:29;;;;;;;;;;;;;;;19.85;59.00391;100834.5;;;;-71
2023/04/14 14:28:27;;;;;;;;;;;;;;;19.68;58.76465;100837.2;;;;-72
2023/04/14 14:33:03;;;;;;;2.2;0.9;;;;;;;;;;;;;-72
2023/04/14 14:33:27;;;;;;;;;;;;;;;19.61;58.70801;100828.8;;;;-73
2023/04/14 14:38:27;;;;;;;;;;;;;;;19.28;57.91602;100826.8;;;;-74
2023/04/14 14:43:27;;;;;;;;;;;;;;;18.98;59.72754;100827.4;;;;-72
2023/04/14 14:48:32;;;;;;;;;;;;;;;18.97;60.20313;100827.4;;;;-71
2023/04/14 14:53:30;;;;;;;;;;;;;;;19.04;58.67969;100823.4;;;;-72
2023/04/14 14:58:28;;;;;;;;;;;;;;;18.99;58.52539;100822.7;;;;-73
2023/04/14 15:03:03;;;;;;;2.3;1;;;;;;;;;;;;;-72
2023/04/14 15:03:27;;;;;;;;;;;;;;;19.05;58.80664;100823.5;;;;-73
2023/04/14 15:08:27;;;;;;;;;;;;;;;19.05;58.22754;100822.2;;;;-72
2023/04/14 15:13:31;;;;;;;;;;;;;;;19.14;58.43262;100817.6;;;;-74
2023/04/14 15:18:27;;;;;;;;;;;;;;;19.29;60.1543;100813.8;;;;-72
2023/04/14 15:23:31;;;;;;;;;;;;;;;19.59;58.67285;100816.8;;;;-73
2023/04/14 15:28:28;;;;;;;;;;;;;;;19.68;58.26367;100817.5;;;;-72
2023/04/14 15:33:08;;;;;;;3.6;0.9;;;;;;;;;;;;;-72
2023/04/14 15:33:28;;;;;;;;;;;;;;;19.83;58.4668;100816.8;;;;-72
2023/04/14 15:38:29;;;;;;;;;;;;;;;19.94;57.2959;100810.4;;;;-71
2023/04/14 15:43:28;;;;;;;;;;;;;;;20.02;56.41992;100809.3;;;;-73
2023/04/14 15:48:28;;;;;;;;;;;;;;;20.1;56.36035;100808.9;;;;-72
2023/04/14 15:53:27;;;;;;;;;;;;;;;20.09;57.52051;100805.6;;;;-72
2023/04/14 15:58:30;;;;;;;;;;;;;;;19.95;57.80957;100808.3;;;;-72
2023/04/14 16:03:10;;;;;;;2.6;0.9;;;;;;;;;;;;;-71
2023/04/14 16:03:27;;;;;;;;;;;;;;;19.86;56.64844;100822.1;;;;-71
2023/04/14 16:08:27;;;;;;;;;;;;;;;19.83;55.79102;100817.9;;;;-71
2023/04/14 16:13:30;;;;;;;;;;;;;;;19.58;55.97559;100816.6;;;;-71
2023/04/14 16:18:27;;;;;;;;;;;;;;;19;57.36816;100818.8;;;;-72
2023/04/14 16:23:27;;;;;;;;;;;;;;;18.52;57.93066;100817.7;;;;-71
2023/04/14 16:28:27;;;;;;;;;;;;;;;18.04;58.88867;100815.1;;;;-71
2023/04/14 16:33:11;;;;;;;2.4;0.8;;;;;;;;;;;;;-72
2023/04/14 16:33:27;;;;;;;;;;;;;;;17.69;58.64844;100821.5;;;;-72
2023/04/14 16:38:28;;;;;;;;;;;;;;;17.39;60.91406;100829;;;;-71
2023/04/14 16:43:27;;;;;;;;;;;;;;;17.1;59.90527;100839.8;;;;-71
2023/04/14 16:48:30;;;;;;;;;;;;;;;16.85;60.77441;100834.5;;;;-71
2023/04/14 16:53:28;;;;;;;;;;;;;;;16.66;59.98047;100827.2;;;;-71
2023/04/14 16:58:27;;;;;;;;;;;;;;;16.47;61.00391;100828.5;;;;-70
2023/04/14 17:03:14;;;;;;;2.3;0.8;;;;;;;;;;;;;-69
2023/04/14 17:03:27;;;;;;;;;;;;;;;16.3;61.09375;100825.9;;;;-68
2023/04/14 17:08:27;;;;;;;;;;;;;;;16.12;61.06836;100827.1;;;;-69
2023/04/14 17:13:27;;;;;;;;;;;;;;;16.05;60.22461;100827.4;;;;-70
2023/04/14 17:18:29;;;;;;;;;;;;;;;16.14;59.61719;100828;;;;-69
2023/04/14 17:23:30;;;;;;;;;;;;;;;16.21;58.99414;100833.4;;;;-69
2023/04/14 17:28:27;;;;;;;;;;;;;;;16.24;57.67773;100846;;;;-69
2023/04/14 17:33:18;;;;;;;2.8;0.8;;;;;;;;;;;;;-69
2023/04/14 17:33:29;;;;;;;;;;;;;;;16.09;58.60645;100855.2;;;;-68
2023/04/14 17:38:30;;;;;;;;;;;;;;;15.88;59.27734;100880.5;;;;-72
2023/04/14 17:43:30;;;;;;;;;;;;;;;15.58;59.98145;100876.9;;;;-71
2023/04/14 17:48:29;;;;;;;;;;;;;;;15.34;60.66797;100874.3;;;;-71
2023/04/14 17:53:29;;;;;;;;;;;;;;;15.15;60.91016;100869.9;;;;-71
2023/04/14 17:58:27;;;;;;;;;;;;;;;14.97;60.95508;100862.9;;;;-73
2023/04/14 18:03:19;;;;;;;2.7;1;;;;;;;;;;;;;-72
2023/04/14 18:03:29;;;;;;;;;;;;;;;14.76;60.91406;100867;;;;-73
2023/04/14 18:08:29;;;;;;;;;;;;;;;14.56;60.875;100872.9;;;;-72
2023/04/14 18:13:27;;;;;;;;;;;;;;;14.34;61.46191;100866.4;;;;-73
2023/04/14 18:18:30;;;;;;;;;;;;;;;14.14;62.18555;100874.5;;;;-73
2023/04/14 18:23:30;;;;;;;;;;;;;;;13.94;61.41699;100876.4;;;;-72
2023/04/14 18:28:27;;;;;;;;;;;;;;;13.74;61.69238;100880;;;;-71
2023/04/14 18:33:21;;;;;;;2.5;1.1;;;;;;;;;;;;;-74
2023/04/14 18:33:35;;;;;;;;;;;;;;;13.57;61.46777;100884;;;;-73
2023/04/14 18:38:28;;;;;;;;;;;;;;;13.45;62.24512;100887.6;;;;-71
2023/04/14 18:43:27;;;;;;;;;;;;;;;13.25;62.45313;100886.4;;;;-72
2023/04/14 18:48:29;;;;;;;;;;;;;;;13.07;62.13574;100889.8;;;;-71
2023/04/14 18:53:30;;;;;;;;;;;;;;;12.92;62.33789;100886.8;;;;-76
2023/04/14 18:58:30;;;;;;;;;;;;;;;12.75;62.77148;100889;;;;-74
2023/04/14 19:03:23;;;;;;;3.5;1.3;;;;;;;;;;;;;-73
2023/04/14 19:03:33;;;;;;;;;;;;;;;12.61;63.06348;100891.2;;;;-73
2023/04/14 19:08:27;;;;;;;;;;;;;;;12.42;62.92578;100900.6;;;;-72
2023/04/14 19:13:27;;;;;;;;;;;;;;;12.26;63.30566;100910.2;;;;-72
2023/04/14 19:18:27;;;;;;;;;;;;;;;12.11;63.7627;100912.3;;;;-71
2023/04/14 19:23:28;;;;;;;;;;;;;;;12;63.24512;100922.6;;;;-72
2023/04/14 19:28:28;;;;;;;;;;;;;;;11.88;63.55176;100927.9;;;;-71
2023/04/14 19:33:26;;;;;;;3;1.1;;;;;;;;;;;;;-72
2023/04/14 19:33:36;;;;;;;;;;;;;;;11.81;64.12012;100927.8;;;;-71
2023/04/14 19:38:27;;;;;;;;;;;;;;;11.75;63.81152;100928.7;;;;-71
2023/04/14 19:43:27;;;;;;;;;;;;;;;11.7;63.9375;100937.7;;;;-72
2023/04/14 19:48:27;;;;;;;;;;;;;;;11.65;63.98633;100946.1;;;;-72
2023/04/14 19:53:27;;;;;;;;;;;;;;;11.61;64.34668;100940.7;;;;-73
2023/04/14 19:58:29;;;;;;;;;;;;;;;11.56;64.13867;100948.3;;;;-72
2023/04/14 20:03:27;;;;;;;3.1;1.4;;;;;;;;;;;;;-72
2023/04/14 20:03:39;;;;;;;;;;;;;;;11.52;64.2002;100953;;;;-72
2023/04/14 20:08:30;;;;;;;;;;;;;;;11.45;64.24707;100947.1;;;;-72
2023/04/14 20:13:33;;;;;;;;;;;;;;;11.42;64.21875;100948.5;;;;-72
2023/04/14 20:18:29;;;;;;;;;;;;;;;11.37;64.46875;100944.1;;;;-72
2023/04/14 20:23:27;;;;;;;;;;;;;;;11.31;64.53711;100941.1;;;;-72
2023/04/14 20:28:28;;;;;;;;;;;;;;;11.27;64.44141;100941.1;;;;-73
2023/04/14 20:33:28;;;;;;;;;;;;;;;11.19;64.3877;100944.6;;;;-72
2023/04/14 20:33:37;;;;;;;5.8;1.9;;;;;;;;;;;;;-72
2023/04/14 20:38:28;;;;;;;;;;;;;;;11.15;64.55859;100944.3;;;;-71
2023/04/14 20:43:32;;;;;;;;;;;;;;;11.12;64.76465;100944.8;;;;-72
2023/04/14 20:48:29;;;;;;;;;;;;;;;11.05;65.02148;100938.9;;;;-72
2023/04/14 20:53:28;;;;;;;;;;;;;;;11;64.78223;100939.7;;;;-71
2023/04/14 20:58:27;;;;;;;;;;;;;;;10.97;64.6875;100939.1;;;;-72
2023/04/14 21:03:28;;;;;;;;;;;;;;;10.92;64.79102;100941.7;;;;-72
2023/04/14 21:03:38;;;;;;;4.7;2.4;;;;;;;;;;;;;-72
2023/04/14 21:08:30;;;;;;;;;;;;;;;10.87;65.11621;100938.3;;;;-72
2023/04/14 21:13:27;;;;;;;;;;;;;;;10.78;65.09277;100937.9;;;;-73
2023/04/14 21:18:30;;;;;;;;;;;;;;;10.68;65.38965;100938.6;;;;-73
2023/04/14 21:23:27;;;;;;;;;;;;;;;10.62;65.01367;100933.9;;;;-72
2023/04/14 21:28:27;;;;;;;;;;;;;;;10.53;64.91211;100934.5;;;;-74
2023/04/14 21:33:27;;;;;;;;;;;;;;;10.43;65.49707;100938.8;;;;-73
2023/04/14 21:33:38;;;;;;;6.7;2.7;;;;;;;;;;;;;-73
2023/04/14 21:38:28;;;;;;;;;;;;;;;10.35;65.49609;100947.4;;;;-72
2023/04/14 21:43:27;;;;;;;;;;;;;;;10.28;65.66309;100946.5;;;;-73
2023/04/14 21:48:27;;;;;;;;;;;;;;;10.2;65.77246;100945.6;;;;-71
2023/04/14 21:53:29;;;;;;;;;;;;;;;10.1;65.96973;100949.5;;;;-72
2023/04/14 21:58:29;;;;;;;;;;;;;;;10.01;65.67773;100957.3;;;;-73
2023/04/14 22:03:31;;;;;;;;;;;;;;;9.92;65.96289;100959.3;;;;-72
2023/04/14 22:03:41;;;;;;;6.8;3.1;;;;;;;;;;;;;-72
2023/04/14 22:08:27;;;;;;;;;;;;;;;9.78;65.96582;100960.5;;;;-72
2023/04/14 22:13:27;;;;;;;;;;;;;;;9.75;65.89453;100963;;;;-72
2023/04/14 22:18:29;;;;;;;;;;;;;;;9.68;66.23828;100965.5;;;;-72
2023/04/14 22:23:27;;;;;;;;;;;;;;;9.57;66.43164;100966.2;;;;-71
2023/04/14 22:28:29;;;;;;;;;;;;;;;9.54;66.64844;100966.4;;;;-74
2023/04/14 22:33:29;;;;;;;;;;;;;;;9.46;67.30176;100971.1;;;;-72
2023/04/14 22:33:39;;;;;;;6.8;3.2;;;;;;;;;;;;;-72
2023/04/14 22:38:27;;;;;;;;;;;;;;;9.39;67.16895;100967.2;;;;-71
2023/04/14 22:43:28;;;;;;;;;;;;;;;9.37;67.15625;100974.1;;;;-73
2023/04/14 22:48:28;;;;;;;;;;;;;;;9.3;67.35547;100981.5;;;;-72
2023/04/14 22:53:29;;;;;;;;;;;;;;;9.28;67.38379;100986.4;;;;-72
2023/04/14 22:58:37;;;;;;;;;;;;;;;9.19;67.47168;100988.2;;;;-72
2023/04/14 23:03:27;;;;;;;;;;;;;;;9.13;67.70508;100989;;;;-72
2023/04/14 23:03:37;;;;;;;6.9;3.2;;;;;;;;;;;;;-72
2023/04/14 23:08:29;;;;;;;;;;;;;;;9.07;67.90527;100990.4;;;;-72
2023/04/14 23:13:29;;;;;;;;;;;;;;;9.01;67.73047;100995;;;;-72
2023/04/14 23:18:27;;;;;;;;;;;;;;;8.96;67.64453;101000;;;;-73
2023/04/14 23:23:27;;;;;;;;;;;;;;;8.94;67.72949;101005.6;;;;-74
2023/04/14 23:28:29;;;;;;;;;;;;;;;8.88;67.70996;101007.3;;;;-72
2023/04/14 23:33:27;;;;;;;;;;;;;;;8.81;68.10938;101007.5;;;;-72
2023/04/14 23:33:37;;;;;;;8.2;3.6;;;;;;;;;;;;;-72
2023/04/14 23:38:27;;;;;;;;;;;;;;;8.76;68.27734;101005.4;;;;-71
2023/04/14 23:43:27;;;;;;;;;;;;;;;8.72;68.11523;101011.4;;;;-72
2023/04/14 23:48:29;;;;;;;;;;;;;;;8.7;68.08984;101016.6;;;;-73
2023/04/14 23:53:28;;;;;;;;;;;;;;;8.66;68.10645;101022.5;;;;-73
2023/04/14 23:58:27;;;;;;;;;;;;;;;8.58;68.36035;101022.3;;;;-72
